sensor_id;sensor_type;location;lat;lon;timestamp;temperature;humidity
7738;DHT22;29398;45.328;5.558;2023-12-22T00:00:20;7.80;99.90
7738;DHT22;29398;45.328;5.558;2023-12-22T00:01:22;7.80;99.90
7738;DHT22;29398;45.328;5.558;2023-12-22T00:02:23;7.80;99.90
7738;DHT22;29398;45.328;5.558;2023-12-22T00:03:26;7.80;99.90
7738;DHT22;29398;45.328;5.558;2023-12-22T00:04:27;7.80;99.90
7738;DHT22;29398;45.328;5.558;2023-12-22T00:05:29;7.80;99.90
7738;DHT22;29398;45.328;5.558;2023-12-22T00:06:30;7.80;99.90
7738;DHT22;29398;45.328;5.558;2023-12-22T00:07:33;7.80;99.90
7738;DHT22;29398;45.328;5.558;2023-12-22T00:08:35;7.90;99.90
7738;DHT22;29398;45.328;5.558;2023-12-22T00:09:36;7.90;99.90
7738;DHT22;29398;45.328;5.558;2023-12-22T00:10:38;7.90;99.90
7738;DHT22;29398;45.328;5.558;2023-12-22T00:11:39;7.90;99.90
7738;DHT22;29398;45.328;5.558;2023-12-22T00:12:42;7.90;99.90
7738;DHT22;29398;45.328;5.558;2023-12-22T00:13:43;7.90;99.90
7738;DHT22;29398;45.328;5.558;2023-12-22T00:14:45;7.90;99.90
7738;DHT22;29398;45.328;5.558;2023-12-22T00:15:46;7.90;99.90
7738;DHT22;29398;45.328;5.558;2023-12-22T00:16:48;7.90;99.90
7738;DHT22;29398;45.328;5.558;2023-12-22T00:17:49;7.90;99.90
7738;DHT22;29398;45.328;5.558;2023-12-22T00:18:51;7.90;99.90
7738;DHT22;29398;45.328;5.558;2023-12-22T00:19:53;8.00;99.90
7738;DHT22;29398;45.328;5.558;2023-12-22T00:20:57;8.00;99.90
7738;DHT22;29398;45.328;5.558;2023-12-22T00:21:58;8.00;99.90
7738;DHT22;29398;45.328;5.558;2023-12-22T00:23:02;8.00;99.90
7738;DHT22;29398;45.328;5.558;2023-12-22T00:24:03;8.00;99.90
7738;DHT22;29398;45.328;5.558;2023-12-22T00:25:05;8.00;99.90
7738;DHT22;29398;45.328;5.558;2023-12-22T00:26:08;8.00;99.90
7738;DHT22;29398;45.328;5.558;2023-12-22T00:27:10;8.00;99.90
7738;DHT22;29398;45.328;5.558;2023-12-22T00:28:11;8.00;99.90
7738;DHT22;29398;45.328;5.558;2023-12-22T00:29:13;8.00;99.90
7738;DHT22;29398;45.328;5.558;2023-12-22T00:30:15;8.00;99.90
7738;DHT22;29398;45.328;5.558;2023-12-22T00:31:17;8.00;99.90
7738;DHT22;29398;45.328;5.558;2023-12-22T00:32:19;8.00;99.90
7738;DHT22;29398;45.328;5.558;2023-12-22T00:33:21;8.00;99.90
7738;DHT22;29398;45.328;5.558;2023-12-22T00:34:22;8.10;99.90
7738;DHT22;29398;45.328;5.558;2023-12-22T00:35:24;8.10;99.90
7738;DHT22;29398;45.328;5.558;2023-12-22T00:36:25;8.10;99.90
7738;DHT22;29398;45.328;5.558;2023-12-22T00:37:26;8.10;99.90
7738;DHT22;29398;45.328;5.558;2023-12-22T00:38:30;8.10;99.90
7738;DHT22;29398;45.328;5.558;2023-12-22T00:39:31;8.10;99.90
7738;DHT22;29398;45.328;5.558;2023-12-22T00:40:33;8.10;99.90
7738;DHT22;29398;45.328;5.558;2023-12-22T00:41:35;8.10;99.90
7738;DHT22;29398;45.328;5.558;2023-12-22T00:42:37;8.10;99.90
7738;DHT22;29398;45.328;5.558;2023-12-22T00:43:38;8.10;99.90
7738;DHT22;29398;45.328;5.558;2023-12-22T00:44:40;8.10;99.90
7738;DHT22;29398;45.328;5.558;2023-12-22T00:45:41;8.10;99.90
7738;DHT22;29398;45.328;5.558;2023-12-22T00:46:43;8.10;99.90
7738;DHT22;29398;45.328;5.558;2023-12-22T00:47:44;8.10;99.90
7738;DHT22;29398;45.328;5.558;2023-12-22T00:48:45;8.10;99.90
7738;DHT22;29398;45.328;5.558;2023-12-22T00:49:47;8.10;99.90
7738;DHT22;29398;45.328;5.558;2023-12-22T00:50:48;8.10;99.90
7738;DHT22;29398;45.328;5.558;2023-12-22T00:51:50;8.10;99.90
7738;DHT22;29398;45.328;5.558;2023-12-22T00:52:52;8.20;99.90
7738;DHT22;29398;45.328;5.558;2023-12-22T00:53:55;8.10;99.90
7738;DHT22;29398;45.328;5.558;2023-12-22T00:54:56;8.20;99.90
7738;DHT22;29398;45.328;5.558;2023-12-22T00:55:59;8.20;99.90
7738;DHT22;29398;45.328;5.558;2023-12-22T00:57:00;8.20;99.90
7738;DHT22;29398;45.328;5.558;2023-12-22T00:58:03;8.10;99.90
7738;DHT22;29398;45.328;5.558;2023-12-22T00:59:04;8.10;99.90
7738;DHT22;29398;45.328;5.558;2023-12-22T01:00:07;8.10;99.90
7738;DHT22;29398;45.328;5.558;2023-12-22T01:01:11;8.10;99.90
7738;DHT22;29398;45.328;5.558;2023-12-22T01:02:13;8.10;99.90
7738;DHT22;29398;45.328;5.558;2023-12-22T01:03:14;8.00;99.90
7738;DHT22;29398;45.328;5.558;2023-12-22T01:04:16;8.00;99.90
7738;DHT22;29398;45.328;5.558;2023-12-22T01:05:17;8.00;99.90
7738;DHT22;29398;45.328;5.558;2023-12-22T01:06:18;8.10;99.90
7738;DHT22;29398;45.328;5.558;2023-12-22T01:07:20;8.10;99.90
7738;DHT22;29398;45.328;5.558;2023-12-22T01:08:22;8.00;99.90
7738;DHT22;29398;45.328;5.558;2023-12-22T01:09:24;8.10;99.90
7738;DHT22;29398;45.328;5.558;2023-12-22T01:10:26;8.10;99.90
7738;DHT22;29398;45.328;5.558;2023-12-22T01:11:28;8.10;99.90
7738;DHT22;29398;45.328;5.558;2023-12-22T01:12:30;8.10;99.90
7738;DHT22;29398;45.328;5.558;2023-12-22T01:13:31;8.10;99.90
7738;DHT22;29398;45.328;5.558;2023-12-22T01:14:33;8.10;99.90
7738;DHT22;29398;45.328;5.558;2023-12-22T01:15:35;8.10;99.90
7738;DHT22;29398;45.328;5.558;2023-12-22T01:16:37;8.10;99.90
7738;DHT22;29398;45.328;5.558;2023-12-22T01:17:38;8.10;99.90
7738;DHT22;29398;45.328;5.558;2023-12-22T01:18:40;8.10;99.90
7738;DHT22;29398;45.328;5.558;2023-12-22T01:19:43;8.20;99.90
7738;DHT22;29398;45.328;5.558;2023-12-22T01:20:46;8.10;99.90
7738;DHT22;29398;45.328;5.558;2023-12-22T01:21:47;8.20;99.90
7738;DHT22;29398;45.328;5.558;2023-12-22T01:22:50;8.20;99.90
7738;DHT22;29398;45.328;5.558;2023-12-22T01:23:51;8.20;99.90
7738;DHT22;29398;45.328;5.558;2023-12-22T01:24:54;8.20;99.90
7738;DHT22;29398;45.328;5.558;2023-12-22T01:25:55;8.20;99.90
7738;DHT22;29398;45.328;5.558;2023-12-22T01:26:57;8.20;99.90
7738;DHT22;29398;45.328;5.558;2023-12-22T01:27:59;8.20;99.90
7738;DHT22;29398;45.328;5.558;2023-12-22T01:29:01;8.20;99.90
7738;DHT22;29398;45.328;5.558;2023-12-22T01:30:03;8.20;99.90
7738;DHT22;29398;45.328;5.558;2023-12-22T01:31:04;8.20;99.90
7738;DHT22;29398;45.328;5.558;2023-12-22T01:32:06;8.20;99.90
7738;DHT22;29398;45.328;5.558;2023-12-22T01:33:07;8.20;99.90
7738;DHT22;29398;45.328;5.558;2023-12-22T01:34:09;8.20;99.90
7738;DHT22;29398;45.328;5.558;2023-12-22T01:35:11;8.10;99.90
7738;DHT22;29398;45.328;5.558;2023-12-22T01:36:13;8.10;99.90
7738;DHT22;29398;45.328;5.558;2023-12-22T01:37:14;8.10;99.90
7738;DHT22;29398;45.328;5.558;2023-12-22T01:38:16;8.20;99.90
7738;DHT22;29398;45.328;5.558;2023-12-22T01:39:17;8.20;99.90
7738;DHT22;29398;45.328;5.558;2023-12-22T01:40:21;8.20;99.90
7738;DHT22;29398;45.328;5.558;2023-12-22T01:41:22;8.10;99.90
7738;DHT22;29398;45.328;5.558;2023-12-22T01:42:23;8.10;99.90
7738;DHT22;29398;45.328;5.558;2023-12-22T01:43:25;8.00;99.90
7738;DHT22;29398;45.328;5.558;2023-12-22T01:44:26;8.00;99.90
7738;DHT22;29398;45.328;5.558;2023-12-22T01:45:28;7.90;99.90
7738;DHT22;29398;45.328;5.558;2023-12-22T01:46:29;7.90;99.90
7738;DHT22;29398;45.328;5.558;2023-12-22T01:47:31;7.90;99.90
7738;DHT22;29398;45.328;5.558;2023-12-22T01:48:33;7.90;99.90
7738;DHT22;29398;45.328;5.558;2023-12-22T01:49:37;7.90;99.90
7738;DHT22;29398;45.328;5.558;2023-12-22T01:50:38;7.90;99.90
7738;DHT22;29398;45.328;5.558;2023-12-22T01:51:40;7.90;99.90
7738;DHT22;29398;45.328;5.558;2023-12-22T01:52:43;7.90;99.90
7738;DHT22;29398;45.328;5.558;2023-12-22T01:53:45;7.90;99.90
7738;DHT22;29398;45.328;5.558;2023-12-22T01:54:48;8.00;99.90
7738;DHT22;29398;45.328;5.558;2023-12-22T01:55:52;7.90;99.90
7738;DHT22;29398;45.328;5.558;2023-12-22T01:56:56;8.00;99.90
7738;DHT22;29398;45.328;5.558;2023-12-22T01:57:57;8.00;99.90
7738;DHT22;29398;45.328;5.558;2023-12-22T01:59:01;8.00;99.90
7738;DHT22;29398;45.328;5.558;2023-12-22T02:00:03;8.00;99.90
7738;DHT22;29398;45.328;5.558;2023-12-22T02:01:13;8.00;99.90
7738;DHT22;29398;45.328;5.558;2023-12-22T02:02:14;8.00;99.90
7738;DHT22;29398;45.328;5.558;2023-12-22T02:03:16;8.00;99.90
7738;DHT22;29398;45.328;5.558;2023-12-22T02:04:19;8.00;99.90
7738;DHT22;29398;45.328;5.558;2023-12-22T02:05:21;8.00;99.90
7738;DHT22;29398;45.328;5.558;2023-12-22T02:06:22;8.00;99.90
7738;DHT22;29398;45.328;5.558;2023-12-22T02:07:24;8.00;99.90
7738;DHT22;29398;45.328;5.558;2023-12-22T02:08:26;8.00;99.90
7738;DHT22;29398;45.328;5.558;2023-12-22T02:09:29;8.00;99.90
7738;DHT22;29398;45.328;5.558;2023-12-22T02:10:31;8.00;99.90
7738;DHT22;29398;45.328;5.558;2023-12-22T02:11:35;8.00;99.90
7738;DHT22;29398;45.328;5.558;2023-12-22T02:12:36;8.00;99.90
7738;DHT22;29398;45.328;5.558;2023-12-22T02:13:37;8.00;99.90
7738;DHT22;29398;45.328;5.558;2023-12-22T02:14:39;8.00;99.90
7738;DHT22;29398;45.328;5.558;2023-12-22T02:15:40;8.10;99.90
7738;DHT22;29398;45.328;5.558;2023-12-22T02:16:45;8.10;99.90
7738;DHT22;29398;45.328;5.558;2023-12-22T02:17:50;8.10;99.90
7738;DHT22;29398;45.328;5.558;2023-12-22T02:18:57;8.10;99.90
7738;DHT22;29398;45.328;5.558;2023-12-22T02:20:01;8.10;99.90
7738;DHT22;29398;45.328;5.558;2023-12-22T02:21:04;8.10;99.90
7738;DHT22;29398;45.328;5.558;2023-12-22T02:22:07;8.10;99.90
7738;DHT22;29398;45.328;5.558;2023-12-22T02:23:10;8.20;99.90
7738;DHT22;29398;45.328;5.558;2023-12-22T02:24:12;8.20;99.90
7738;DHT22;29398;45.328;5.558;2023-12-22T02:25:14;8.20;99.90
7738;DHT22;29398;45.328;5.558;2023-12-22T02:26:20;8.20;99.90
7738;DHT22;29398;45.328;5.558;2023-12-22T02:27:29;8.20;99.90
7738;DHT22;29398;45.328;5.558;2023-12-22T02:28:33;8.20;99.90
7738;DHT22;29398;45.328;5.558;2023-12-22T02:29:43;8.20;99.90
7738;DHT22;29398;45.328;5.558;2023-12-22T02:30:52;8.30;99.90
7738;DHT22;29398;45.328;5.558;2023-12-22T02:31:57;8.30;99.90
7738;DHT22;29398;45.328;5.558;2023-12-22T02:33:01;8.30;99.90
7738;DHT22;29398;45.328;5.558;2023-12-22T02:34:07;8.30;99.90
7738;DHT22;29398;45.328;5.558;2023-12-22T02:35:17;8.30;99.90
7738;DHT22;29398;45.328;5.558;2023-12-22T02:36:40;8.30;99.90
7738;DHT22;29398;45.328;5.558;2023-12-22T02:37:41;8.30;99.90
7738;DHT22;29398;45.328;5.558;2023-12-22T02:38:45;8.30;99.90
7738;DHT22;29398;45.328;5.558;2023-12-22T02:39:47;8.30;99.90
7738;DHT22;29398;45.328;5.558;2023-12-22T02:40:48;8.40;99.90
7738;DHT22;29398;45.328;5.558;2023-12-22T02:41:51;8.40;99.90
7738;DHT22;29398;45.328;5.558;2023-12-22T02:42:52;8.40;99.90
7738;DHT22;29398;45.328;5.558;2023-12-22T02:43:55;8.40;99.90
7738;DHT22;29398;45.328;5.558;2023-12-22T02:44:57;8.40;99.90
7738;DHT22;29398;45.328;5.558;2023-12-22T02:45:58;8.40;99.90
7738;DHT22;29398;45.328;5.558;2023-12-22T02:47:00;8.40;99.90
7738;DHT22;29398;45.328;5.558;2023-12-22T02:48:01;8.40;99.90
7738;DHT22;29398;45.328;5.558;2023-12-22T02:49:03;8.40;99.90
7738;DHT22;29398;45.328;5.558;2023-12-22T02:50:05;8.40;99.90
7738;DHT22;29398;45.328;5.558;2023-12-22T02:51:06;8.40;99.90
7738;DHT22;29398;45.328;5.558;2023-12-22T02:52:08;8.40;99.90
7738;DHT22;29398;45.328;5.558;2023-12-22T02:53:09;8.40;99.90
7738;DHT22;29398;45.328;5.558;2023-12-22T02:54:13;8.40;99.90
7738;DHT22;29398;45.328;5.558;2023-12-22T02:55:14;8.40;99.90
7738;DHT22;29398;45.328;5.558;2023-12-22T02:56:16;8.40;99.90
7738;DHT22;29398;45.328;5.558;2023-12-22T02:57:17;8.40;99.90
7738;DHT22;29398;45.328;5.558;2023-12-22T02:58:19;8.40;99.90
7738;DHT22;29398;45.328;5.558;2023-12-22T02:59:20;8.40;99.90
7738;DHT22;29398;45.328;5.558;2023-12-22T03:00:21;8.40;99.90
7738;DHT22;29398;45.328;5.558;2023-12-22T03:01:23;8.40;99.90
7738;DHT22;29398;45.328;5.558;2023-12-22T03:02:25;8.40;99.90
7738;DHT22;29398;45.328;5.558;2023-12-22T03:03:27;8.40;99.90
7738;DHT22;29398;45.328;5.558;2023-12-22T03:04:28;8.40;99.90
7738;DHT22;29398;45.328;5.558;2023-12-22T03:05:30;8.40;99.90
7738;DHT22;29398;45.328;5.558;2023-12-22T03:06:31;8.40;99.90
7738;DHT22;29398;45.328;5.558;2023-12-22T03:07:32;8.40;99.90
7738;DHT22;29398;45.328;5.558;2023-12-22T03:08:34;8.40;99.90
7738;DHT22;29398;45.328;5.558;2023-12-22T03:09:37;8.40;99.90
7738;DHT22;29398;45.328;5.558;2023-12-22T03:10:38;8.40;99.90
7738;DHT22;29398;45.328;5.558;2023-12-22T03:11:40;8.40;99.90
7738;DHT22;29398;45.328;5.558;2023-12-22T03:12:41;8.40;99.90
7738;DHT22;29398;45.328;5.558;2023-12-22T03:13:43;8.40;99.90
7738;DHT22;29398;45.328;5.558;2023-12-22T03:14:44;8.40;99.90
7738;DHT22;29398;45.328;5.558;2023-12-22T03:15:45;8.40;99.90
7738;DHT22;29398;45.328;5.558;2023-12-22T03:16:48;8.40;99.90
7738;DHT22;29398;45.328;5.558;2023-12-22T03:17:49;8.40;99.90
7738;DHT22;29398;45.328;5.558;2023-12-22T03:18:51;8.40;99.90
7738;DHT22;29398;45.328;5.558;2023-12-22T03:19:52;8.40;99.90
7738;DHT22;29398;45.328;5.558;2023-12-22T03:20:54;8.40;99.90
7738;DHT22;29398;45.328;5.558;2023-12-22T03:21:55;8.40;99.90
7738;DHT22;29398;45.328;5.558;2023-12-22T03:22:57;8.40;99.90
7738;DHT22;29398;45.328;5.558;2023-12-22T03:23:59;8.40;99.90
7738;DHT22;29398;45.328;5.558;2023-12-22T03:25:02;8.50;99.90
7738;DHT22;29398;45.328;5.558;2023-12-22T03:26:04;8.50;99.90
7738;DHT22;29398;45.328;5.558;2023-12-22T03:27:06;8.50;99.90
7738;DHT22;29398;45.328;5.558;2023-12-22T03:28:07;8.50;99.90
7738;DHT22;29398;45.328;5.558;2023-12-22T03:29:09;8.50;99.90
7738;DHT22;29398;45.328;5.558;2023-12-22T03:30:11;8.50;99.90
7738;DHT22;29398;45.328;5.558;2023-12-22T03:31:13;8.50;99.90
7738;DHT22;29398;45.328;5.558;2023-12-22T03:32:14;8.50;99.90
7738;DHT22;29398;45.328;5.558;2023-12-22T03:33:16;8.50;99.90
7738;DHT22;29398;45.328;5.558;2023-12-22T03:34:17;8.50;99.90
7738;DHT22;29398;45.328;5.558;2023-12-22T03:35:19;8.50;99.90
7738;DHT22;29398;45.328;5.558;2023-12-22T03:36:21;8.50;99.90
7738;DHT22;29398;45.328;5.558;2023-12-22T03:37:23;8.50;99.90
7738;DHT22;29398;45.328;5.558;2023-12-22T03:38:24;8.50;99.90
7738;DHT22;29398;45.328;5.558;2023-12-22T03:39:44;8.50;99.90
7738;DHT22;29398;45.328;5.558;2023-12-22T03:40:46;8.50;99.90
7738;DHT22;29398;45.328;5.558;2023-12-22T03:41:49;8.50;99.90
7738;DHT22;29398;45.328;5.558;2023-12-22T03:42:50;8.60;99.90
7738;DHT22;29398;45.328;5.558;2023-12-22T03:43:52;8.60;99.90
7738;DHT22;29398;45.328;5.558;2023-12-22T03:44:53;8.60;99.90
7738;DHT22;29398;45.328;5.558;2023-12-22T03:45:55;8.60;99.90
7738;DHT22;29398;45.328;5.558;2023-12-22T03:46:56;8.60;99.90
7738;DHT22;29398;45.328;5.558;2023-12-22T03:47:58;8.60;99.90
7738;DHT22;29398;45.328;5.558;2023-12-22T03:48:59;8.60;99.90
7738;DHT22;29398;45.328;5.558;2023-12-22T03:50:00;8.60;99.90
7738;DHT22;29398;45.328;5.558;2023-12-22T03:51:02;8.60;99.90
7738;DHT22;29398;45.328;5.558;2023-12-22T03:52:03;8.60;99.90
7738;DHT22;29398;45.328;5.558;2023-12-22T03:53:06;8.50;99.90
7738;DHT22;29398;45.328;5.558;2023-12-22T03:54:07;8.50;99.90
7738;DHT22;29398;45.328;5.558;2023-12-22T03:55:09;8.60;99.90
7738;DHT22;29398;45.328;5.558;2023-12-22T03:56:12;8.50;99.90
7738;DHT22;29398;45.328;5.558;2023-12-22T03:57:13;8.50;99.90
7738;DHT22;29398;45.328;5.558;2023-12-22T03:58:15;8.40;99.90
7738;DHT22;29398;45.328;5.558;2023-12-22T03:59:16;8.40;99.90
7738;DHT22;29398;45.328;5.558;2023-12-22T04:00:19;8.30;99.90
7738;DHT22;29398;45.328;5.558;2023-12-22T04:01:21;8.30;99.90
7738;DHT22;29398;45.328;5.558;2023-12-22T04:02:22;8.30;99.90
7738;DHT22;29398;45.328;5.558;2023-12-22T04:03:24;8.30;99.90
7738;DHT22;29398;45.328;5.558;2023-12-22T04:04:25;8.30;99.90
7738;DHT22;29398;45.328;5.558;2023-12-22T04:05:28;8.40;99.90
7738;DHT22;29398;45.328;5.558;2023-12-22T04:06:30;8.40;99.90
7738;DHT22;29398;45.328;5.558;2023-12-22T04:07:31;8.40;99.90
7738;DHT22;29398;45.328;5.558;2023-12-22T04:08:33;8.40;99.90
7738;DHT22;29398;45.328;5.558;2023-12-22T04:09:36;8.40;99.90
7738;DHT22;29398;45.328;5.558;2023-12-22T04:10:38;8.40;99.90
7738;DHT22;29398;45.328;5.558;2023-12-22T04:12:00;8.40;99.90
7738;DHT22;29398;45.328;5.558;2023-12-22T04:13:01;8.40;99.90
7738;DHT22;29398;45.328;5.558;2023-12-22T04:14:03;8.40;99.90
7738;DHT22;29398;45.328;5.558;2023-12-22T04:15:06;8.40;99.90
7738;DHT22;29398;45.328;5.558;2023-12-22T04:16:08;8.40;99.90
7738;DHT22;29398;45.328;5.558;2023-12-22T04:17:10;8.40;99.90
7738;DHT22;29398;45.328;5.558;2023-12-22T04:18:12;8.40;99.90
7738;DHT22;29398;45.328;5.558;2023-12-22T04:19:13;8.40;99.90
7738;DHT22;29398;45.328;5.558;2023-12-22T04:20:15;8.40;99.90
7738;DHT22;29398;45.328;5.558;2023-12-22T04:21:16;8.40;99.90
7738;DHT22;29398;45.328;5.558;2023-12-22T04:22:19;8.40;99.90
7738;DHT22;29398;45.328;5.558;2023-12-22T04:23:20;8.40;99.90
7738;DHT22;29398;45.328;5.558;2023-12-22T04:24:22;8.40;99.90
7738;DHT22;29398;45.328;5.558;2023-12-22T04:25:23;8.40;99.90
7738;DHT22;29398;45.328;5.558;2023-12-22T04:26:25;8.40;99.90
7738;DHT22;29398;45.328;5.558;2023-12-22T04:27:28;8.40;99.90
7738;DHT22;29398;45.328;5.558;2023-12-22T04:28:29;8.40;99.90
7738;DHT22;29398;45.328;5.558;2023-12-22T04:29:31;8.40;99.90
7738;DHT22;29398;45.328;5.558;2023-12-22T04:30:32;8.50;99.90
7738;DHT22;29398;45.328;5.558;2023-12-22T04:31:35;8.40;99.90
7738;DHT22;29398;45.328;5.558;2023-12-22T04:32:36;8.40;99.90
7738;DHT22;29398;45.328;5.558;2023-12-22T04:33:38;8.40;99.90
7738;DHT22;29398;45.328;5.558;2023-12-22T04:34:39;8.40;99.90
7738;DHT22;29398;45.328;5.558;2023-12-22T04:35:41;8.40;99.90
7738;DHT22;29398;45.328;5.558;2023-12-22T04:36:42;8.40;99.90
7738;DHT22;29398;45.328;5.558;2023-12-22T04:37:44;8.50;99.90
7738;DHT22;29398;45.328;5.558;2023-12-22T04:38:45;8.50;99.90
7738;DHT22;29398;45.328;5.558;2023-12-22T04:39:47;8.50;99.90
7738;DHT22;29398;45.328;5.558;2023-12-22T04:40:48;8.50;99.90
7738;DHT22;29398;45.328;5.558;2023-12-22T04:41:50;8.50;99.90
7738;DHT22;29398;45.328;5.558;2023-12-22T04:42:53;8.50;99.90
7738;DHT22;29398;45.328;5.558;2023-12-22T04:43:56;8.50;99.90
7738;DHT22;29398;45.328;5.558;2023-12-22T04:44:57;8.50;99.90
7738;DHT22;29398;45.328;5.558;2023-12-22T04:45:59;8.50;99.90
7738;DHT22;29398;45.328;5.558;2023-12-22T04:47:00;8.50;99.90
7738;DHT22;29398;45.328;5.558;2023-12-22T04:48:01;8.50;99.90
7738;DHT22;29398;45.328;5.558;2023-12-22T04:49:03;8.50;99.90
7738;DHT22;29398;45.328;5.558;2023-12-22T04:50:05;8.50;99.90
7738;DHT22;29398;45.328;5.558;2023-12-22T04:51:07;8.50;99.90
7738;DHT22;29398;45.328;5.558;2023-12-22T04:52:08;8.50;99.90
7738;DHT22;29398;45.328;5.558;2023-12-22T04:53:10;8.50;99.90
7738;DHT22;29398;45.328;5.558;2023-12-22T04:54:11;8.50;99.90
7738;DHT22;29398;45.328;5.558;2023-12-22T04:55:13;8.50;99.90
7738;DHT22;29398;45.328;5.558;2023-12-22T04:56:16;8.50;99.90
7738;DHT22;29398;45.328;5.558;2023-12-22T04:57:18;8.50;99.90
7738;DHT22;29398;45.328;5.558;2023-12-22T04:58:20;8.60;99.90
7738;DHT22;29398;45.328;5.558;2023-12-22T04:59:22;8.60;99.90
7738;DHT22;29398;45.328;5.558;2023-12-22T05:00:24;8.60;99.90
7738;DHT22;29398;45.328;5.558;2023-12-22T05:01:27;8.60;99.90
7738;DHT22;29398;45.328;5.558;2023-12-22T05:02:28;8.60;99.90
7738;DHT22;29398;45.328;5.558;2023-12-22T05:03:29;8.60;99.90
7738;DHT22;29398;45.328;5.558;2023-12-22T05:04:32;8.60;99.90
7738;DHT22;29398;45.328;5.558;2023-12-22T05:05:33;8.60;99.90
7738;DHT22;29398;45.328;5.558;2023-12-22T05:06:35;8.60;99.90
7738;DHT22;29398;45.328;5.558;2023-12-22T05:07:36;8.60;99.90
7738;DHT22;29398;45.328;5.558;2023-12-22T05:08:57;8.60;99.90
7738;DHT22;29398;45.328;5.558;2023-12-22T05:09:58;8.60;99.90
7738;DHT22;29398;45.328;5.558;2023-12-22T05:11:00;8.60;99.90
7738;DHT22;29398;45.328;5.558;2023-12-22T05:12:01;8.60;99.90
7738;DHT22;29398;45.328;5.558;2023-12-22T05:13:03;8.60;99.90
7738;DHT22;29398;45.328;5.558;2023-12-22T05:14:05;8.60;99.90
7738;DHT22;29398;45.328;5.558;2023-12-22T05:15:08;8.60;99.90
7738;DHT22;29398;45.328;5.558;2023-12-22T05:16:09;8.60;99.90
7738;DHT22;29398;45.328;5.558;2023-12-22T05:17:11;8.60;99.90
7738;DHT22;29398;45.328;5.558;2023-12-22T05:18:13;8.60;99.90
7738;DHT22;29398;45.328;5.558;2023-12-22T05:19:14;8.60;99.90
7738;DHT22;29398;45.328;5.558;2023-12-22T05:20:16;8.60;99.90
7738;DHT22;29398;45.328;5.558;2023-12-22T05:21:17;8.60;99.90
7738;DHT22;29398;45.328;5.558;2023-12-22T05:22:20;8.60;99.90
7738;DHT22;29398;45.328;5.558;2023-12-22T05:23:21;8.60;99.90
7738;DHT22;29398;45.328;5.558;2023-12-22T05:24:23;8.60;99.90
7738;DHT22;29398;45.328;5.558;2023-12-22T05:25:24;8.60;99.90
7738;DHT22;29398;45.328;5.558;2023-12-22T05:26:26;8.60;99.90
7738;DHT22;29398;45.328;5.558;2023-12-22T05:27:31;8.50;99.90
7738;DHT22;29398;45.328;5.558;2023-12-22T05:28:33;8.50;99.90
7738;DHT22;29398;45.328;5.558;2023-12-22T05:29:35;8.50;99.90
7738;DHT22;29398;45.328;5.558;2023-12-22T05:30:39;8.50;99.90
7738;DHT22;29398;45.328;5.558;2023-12-22T05:31:40;8.50;99.90
7738;DHT22;29398;45.328;5.558;2023-12-22T05:32:41;8.50;99.90
7738;DHT22;29398;45.328;5.558;2023-12-22T05:33:43;8.50;99.90
7738;DHT22;29398;45.328;5.558;2023-12-22T05:34:44;8.50;99.90
7738;DHT22;29398;45.328;5.558;2023-12-22T05:35:46;8.50;99.90
7738;DHT22;29398;45.328;5.558;2023-12-22T05:36:47;8.50;99.90
7738;DHT22;29398;45.328;5.558;2023-12-22T05:37:49;8.50;99.90
7738;DHT22;29398;45.328;5.558;2023-12-22T05:38:51;8.50;99.90
7738;DHT22;29398;45.328;5.558;2023-12-22T05:39:53;8.50;99.90
7738;DHT22;29398;45.328;5.558;2023-12-22T05:40:54;8.50;99.90
7738;DHT22;29398;45.328;5.558;2023-12-22T05:41:55;8.50;99.90
7738;DHT22;29398;45.328;5.558;2023-12-22T05:42:57;8.50;99.90
7738;DHT22;29398;45.328;5.558;2023-12-22T05:43:58;8.50;99.90
7738;DHT22;29398;45.328;5.558;2023-12-22T05:45:02;8.50;99.90
7738;DHT22;29398;45.328;5.558;2023-12-22T05:46:03;8.50;99.90
7738;DHT22;29398;45.328;5.558;2023-12-22T05:47:05;8.50;99.90
7738;DHT22;29398;45.328;5.558;2023-12-22T05:48:07;8.50;99.90
7738;DHT22;29398;45.328;5.558;2023-12-22T05:49:09;8.50;99.90
7738;DHT22;29398;45.328;5.558;2023-12-22T05:50:10;8.50;99.90
7738;DHT22;29398;45.328;5.558;2023-12-22T05:51:13;8.50;99.90
7738;DHT22;29398;45.328;5.558;2023-12-22T05:52:14;8.60;99.90
7738;DHT22;29398;45.328;5.558;2023-12-22T05:53:16;8.60;99.90
7738;DHT22;29398;45.328;5.558;2023-12-22T05:54:17;8.60;99.90
7738;DHT22;29398;45.328;5.558;2023-12-22T05:55:20;8.50;99.90
7738;DHT22;29398;45.328;5.558;2023-12-22T05:56:21;8.50;99.90
7738;DHT22;29398;45.328;5.558;2023-12-22T05:57:25;8.50;99.90
7738;DHT22;29398;45.328;5.558;2023-12-22T05:58:27;8.60;99.90
7738;DHT22;29398;45.328;5.558;2023-12-22T05:59:28;8.50;99.90
7738;DHT22;29398;45.328;5.558;2023-12-22T06:00:34;8.50;99.90
7738;DHT22;29398;45.328;5.558;2023-12-22T06:01:35;8.50;99.90
7738;DHT22;29398;45.328;5.558;2023-12-22T06:02:38;8.50;99.90
7738;DHT22;29398;45.328;5.558;2023-12-22T06:03:39;8.50;99.90
7738;DHT22;29398;45.328;5.558;2023-12-22T06:04:41;8.50;99.90
7738;DHT22;29398;45.328;5.558;2023-12-22T06:05:43;8.50;99.90
7738;DHT22;29398;45.328;5.558;2023-12-22T06:06:44;8.60;99.90
7738;DHT22;29398;45.328;5.558;2023-12-22T06:07:46;8.50;99.90
7738;DHT22;29398;45.328;5.558;2023-12-22T06:08:47;8.60;99.90
7738;DHT22;29398;45.328;5.558;2023-12-22T06:09:50;8.60;99.90
7738;DHT22;29398;45.328;5.558;2023-12-22T06:10:51;8.60;99.90
7738;DHT22;29398;45.328;5.558;2023-12-22T06:11:53;8.60;99.90
7738;DHT22;29398;45.328;5.558;2023-12-22T06:12:55;8.60;99.90
7738;DHT22;29398;45.328;5.558;2023-12-22T06:13:58;8.60;99.90
7738;DHT22;29398;45.328;5.558;2023-12-22T06:15:00;8.60;99.90
7738;DHT22;29398;45.328;5.558;2023-12-22T06:16:03;8.60;99.90
7738;DHT22;29398;45.328;5.558;2023-12-22T06:17:05;8.60;99.90
7738;DHT22;29398;45.328;5.558;2023-12-22T06:18:06;8.50;99.90
7738;DHT22;29398;45.328;5.558;2023-12-22T06:19:09;8.60;99.90
7738;DHT22;29398;45.328;5.558;2023-12-22T06:20:11;8.60;99.90
7738;DHT22;29398;45.328;5.558;2023-12-22T06:21:13;8.50;99.90
7738;DHT22;29398;45.328;5.558;2023-12-22T06:22:14;8.60;99.90
7738;DHT22;29398;45.328;5.558;2023-12-22T06:23:17;8.60;99.90
7738;DHT22;29398;45.328;5.558;2023-12-22T06:24:18;8.60;99.90
7738;DHT22;29398;45.328;5.558;2023-12-22T06:25:20;8.60;99.90
7738;DHT22;29398;45.328;5.558;2023-12-22T06:26:21;8.60;99.90
7738;DHT22;29398;45.328;5.558;2023-12-22T06:27:24;8.60;99.90
7738;DHT22;29398;45.328;5.558;2023-12-22T06:28:26;8.60;99.90
7738;DHT22;29398;45.328;5.558;2023-12-22T06:29:28;8.60;99.90
7738;DHT22;29398;45.328;5.558;2023-12-22T06:30:29;8.60;99.90
7738;DHT22;29398;45.328;5.558;2023-12-22T06:31:32;8.60;99.90
7738;DHT22;29398;45.328;5.558;2023-12-22T06:32:34;8.60;99.90
7738;DHT22;29398;45.328;5.558;2023-12-22T06:33:35;8.60;99.90
7738;DHT22;29398;45.328;5.558;2023-12-22T06:34:37;8.60;99.90
7738;DHT22;29398;45.328;5.558;2023-12-22T06:35:38;8.60;99.90
7738;DHT22;29398;45.328;5.558;2023-12-22T06:36:41;8.50;99.90
7738;DHT22;29398;45.328;5.558;2023-12-22T06:37:43;8.50;99.90
7738;DHT22;29398;45.328;5.558;2023-12-22T06:38:44;8.50;99.90
7738;DHT22;29398;45.328;5.558;2023-12-22T06:39:46;8.50;99.90
7738;DHT22;29398;45.328;5.558;2023-12-22T06:40:47;8.50;99.90
7738;DHT22;29398;45.328;5.558;2023-12-22T06:41:50;8.50;99.90
7738;DHT22;29398;45.328;5.558;2023-12-22T06:42:51;8.50;99.90
7738;DHT22;29398;45.328;5.558;2023-12-22T06:43:53;8.50;99.90
7738;DHT22;29398;45.328;5.558;2023-12-22T06:44:54;8.50;99.90
7738;DHT22;29398;45.328;5.558;2023-12-22T06:45:56;8.50;99.90